Time;durP1;ratioP1;P1;durP2;ratioP2;P2;SDS_P1;SDS_P2;PMS_P1;PMS_P2;Temp;Humidity;BMP_temperature;BMP_pressure;BME280_temperature;BME280_humidity;BME280_pressure;Samples;Min_cycle;Max_cycle;Signal;HPM_P1;HPM_P2
2023/12/27 00:00:29;;;;;;;7.50;2.47;;;;;;;;;;5067696;28;20048;-76
2023/12/27 00:02:55;;;;;;;10.55;2.38;;;;;;;;;;5050414;28;20052;-75
2023/12/27 00:05:21;;;;;;;10.13;2.78;;;;;;;;;;5048298;28;20052;-75
2023/12/27 00:07:50;;;;;;;8.85;2.55;;;;;;;;;;5044614;28;20132;-75
2023/12/27 00:10:16;;;;;;;5.93;2.67;;;;;;;;;;5051206;28;20182;-75
2023/12/27 00:12:42;;;;;;;9.65;2.40;;;;;;;;;;5071165;28;20036;-76
2023/12/27 00:15:11;;;;;;;8.13;2.55;;;;;;;;;;5049863;28;20045;-75
2023/12/27 00:17:37;;;;;;;3.33;2.30;;;;;;;;;;5052742;28;20044;-75
2023/12/27 00:20:03;;;;;;;6.32;2.50;;;;;;;;;;5063819;28;20068;-76
2023/12/27 00:22:29;;;;;;;9.02;2.30;;;;;;;;;;5048777;28;20045;-76
2023/12/27 00:24:55;;;;;;;8.07;2.75;;;;;;;;;;5045071;28;20187;-76
2023/12/27 00:27:21;;;;;;;6.55;2.38;;;;;;;;;;5039804;28;20136;-76
2023/12/27 00:29:47;;;;;;;9.02;2.72;;;;;;;;;;5063021;28;20053;-76
2023/12/27 00:32:15;;;;;;;7.20;2.70;;;;;;;;;;5049966;28;20527;-76
2023/12/27 00:34:41;;;;;;;5.97;2.70;;;;;;;;;;5050407;28;20155;-76
2023/12/27 00:37:08;;;;;;;4.97;2.42;;;;;;;;;;5069753;28;20556;-76
2023/12/27 00:39:34;;;;;;;7.28;2.90;;;;;;;;;;5068158;28;20503;-76
2023/12/27 00:42:00;;;;;;;7.75;2.90;;;;;;;;;;5053088;28;20101;-76
2023/12/27 00:44:26;;;;;;;7.13;2.50;;;;;;;;;;5043406;28;20074;-75
2023/12/27 00:46:52;;;;;;;7.35;2.60;;;;;;;;;;5046496;28;20135;-75
2023/12/27 00:49:18;;;;;;;8.70;2.75;;;;;;;;;;5045047;28;20725;-76
2023/12/27 00:51:44;;;;;;;7.18;2.70;;;;;;;;;;5047358;28;20051;-75
2023/12/27 00:54:10;;;;;;;5.38;2.80;;;;;;;;;;5049964;28;20037;-75
2023/12/27 00:56:43;;;;;;;7.50;2.50;;;;;;;;;;5047191;28;20472;-75
2023/12/27 00:59:09;;;;;;;7.78;3.05;;;;;;;;;;5045949;28;20041;-75
2023/12/27 01:01:35;;;;;;;5.53;2.72;;;;;;;;;;5049369;28;20047;-75
2023/12/27 01:04:01;;;;;;;7.85;3.20;;;;;;;;;;5046934;28;20044;-75
2023/12/27 01:06:27;;;;;;;7.35;3.50;;;;;;;;;;5046163;28;20684;-75
2023/12/27 01:08:53;;;;;;;6.95;3.00;;;;;;;;;;5064716;28;20041;-75
2023/12/27 01:11:19;;;;;;;9.48;3.33;;;;;;;;;;5066753;28;20037;-75
2023/12/27 01:13:45;;;;;;;6.13;2.95;;;;;;;;;;5052130;28;20040;-75
2023/12/27 01:16:11;;;;;;;7.05;3.25;;;;;;;;;;5070314;28;20048;-76
2023/12/27 01:18:37;;;;;;;6.43;2.90;;;;;;;;;;5047797;28;20041;-76
2023/12/27 01:21:03;;;;;;;8.82;3.35;;;;;;;;;;5048257;28;20059;-76
2023/12/27 01:23:29;;;;;;;9.73;3.17;;;;;;;;;;5048890;28;20045;-76
2023/12/27 01:25:55;;;;;;;7.70;3.15;;;;;;;;;;5052574;28;20523;-75
2023/12/27 01:28:21;;;;;;;10.02;3.30;;;;;;;;;;5065788;28;20041;-76
2023/12/27 01:30:47;;;;;;;8.05;3.20;;;;;;;;;;5047254;28;20154;-76
2023/12/27 01:33:13;;;;;;;7.05;3.10;;;;;;;;;;5045959;28;20094;-76
2023/12/27 01:35:40;;;;;;;16.63;3.42;;;;;;;;;;5049586;28;20427;-75
2023/12/27 01:38:06;;;;;;;8.15;3.08;;;;;;;;;;5048547;28;20123;-75
2023/12/27 01:40:32;;;;;;;10.48;3.55;;;;;;;;;;5068929;28;20479;-76
2023/12/27 01:42:58;;;;;;;6.60;3.35;;;;;;;;;;5044161;28;20040;-75
2023/12/27 01:45:24;;;;;;;8.20;3.20;;;;;;;;;;5048841;28;20619;-75
2023/12/27 01:47:50;;;;;;;9.55;3.08;;;;;;;;;;5051887;28;20404;-75
2023/12/27 01:50:16;;;;;;;8.20;3.28;;;;;;;;;;5062358;28;20044;-75
2023/12/27 01:52:42;;;;;;;8.45;3.35;;;;;;;;;;5064355;28;20040;-75
2023/12/27 01:55:09;;;;;;;7.72;3.20;;;;;;;;;;5046322;28;20052;-75
2023/12/27 01:57:35;;;;;;;9.35;3.00;;;;;;;;;;5049366;28;20094;-75
2023/12/27 02:00:02;;;;;;;6.00;3.53;;;;;;;;;;5050317;28;20048;-75
2023/12/27 02:02:28;;;;;;;8.07;2.90;;;;;;;;;;5065565;28;20041;-75
2023/12/27 02:04:54;;;;;;;10.52;3.30;;;;;;;;;;5048908;28;20132;-75
2023/12/27 02:07:20;;;;;;;5.93;2.80;;;;;;;;;;5045822;28;20583;-75
2023/12/27 02:09:48;;;;;;;5.43;2.92;;;;;;;;;;5047235;28;20051;-75
2023/12/27 02:12:23;;;;;;;8.77;3.08;;;;;;;;;;5067097;28;20480;-75
2023/12/27 02:14:49;;;;;;;6.43;2.67;;;;;;;;;;5051434;28;20056;-75
2023/12/27 02:17:15;;;;;;;10.07;3.47;;;;;;;;;;5043935;28;20040;-75
2023/12/27 02:19:41;;;;;;;12.13;3.25;;;;;;;;;;5048208;28;20418;-76
2023/12/27 02:22:09;;;;;;;4.50;2.95;;;;;;;;;;5046494;28;20044;-75
2023/12/27 02:24:36;;;;;;;7.55;3.08;;;;;;;;;;5049043;28;20071;-76
2023/12/27 02:27:03;;;;;;;9.70;3.33;;;;;;;;;;5044915;28;20390;-75
2023/12/27 02:29:29;;;;;;;10.93;3.40;;;;;;;;;;5048571;28;20072;-75
2023/12/27 02:31:55;;;;;;;8.95;3.35;;;;;;;;;;5047482;28;20052;-75
2023/12/27 02:34:21;;;;;;;9.00;3.33;;;;;;;;;;5049699;28;20033;-76
2023/12/27 02:36:47;;;;;;;8.45;3.20;;;;;;;;;;5066781;28;20460;-75
2023/12/27 02:39:13;;;;;;;9.45;2.63;;;;;;;;;;5050277;28;20040;-75
2023/12/27 02:41:42;;;;;;;11.13;3.42;;;;;;;;;;5046041;28;20044;-75
2023/12/27 02:44:08;;;;;;;7.10;3.17;;;;;;;;;;5053093;28;20043;-75
2023/12/27 02:46:34;;;;;;;10.40;3.88;;;;;;;;;;5048293;28;20045;-76
2023/12/27 02:49:00;;;;;;;11.30;3.13;;;;;;;;;;5044073;28;20041;-76
2023/12/27 02:51:26;;;;;;;6.72;3.30;;;;;;;;;;5049148;28;20052;-75
2023/12/27 02:53:52;;;;;;;6.53;3.50;;;;;;;;;;5048163;28;20121;-76
2023/12/27 02:56:21;;;;;;;8.20;3.33;;;;;;;;;;5045667;28;20041;-75
2023/12/27 02:58:47;;;;;;;10.48;3.70;;;;;;;;;;5046271;28;20147;-75
2023/12/27 03:01:13;;;;;;;8.18;3.67;;;;;;;;;;5044660;28;20134;-75
2023/12/27 03:03:39;;;;;;;7.53;3.17;;;;;;;;;;5047581;28;20982;-75
2023/12/27 03:06:06;;;;;;;8.82;3.30;;;;;;;;;;5046130;28;20084;-75
2023/12/27 03:08:33;;;;;;;6.90;3.30;;;;;;;;;;5046992;28;20044;-75
2023/12/27 03:10:59;;;;;;;7.95;3.63;;;;;;;;;;5050383;28;20102;-75
2023/12/27 03:13:27;;;;;;;8.43;3.90;;;;;;;;;;5046657;28;20080;-75
2023/12/27 03:15:53;;;;;;;9.88;3.78;;;;;;;;;;5042809;28;20071;-75
2023/12/27 03:18:22;;;;;;;10.82;3.85;;;;;;;;;;5062193;28;20044;-75
2023/12/27 03:20:48;;;;;;;8.75;3.95;;;;;;;;;;5043659;28;20048;-75
2023/12/27 03:23:15;;;;;;;8.75;3.38;;;;;;;;;;5045415;28;20442;-75
2023/12/27 03:25:41;;;;;;;11.60;3.80;;;;;;;;;;5066648;28;20392;-75
2023/12/27 03:28:07;;;;;;;8.23;3.58;;;;;;;;;;5048199;28;20044;-74
2023/12/27 03:30:33;;;;;;;12.38;4.13;;;;;;;;;;5044180;28;20076;-75
2023/12/27 03:33:00;;;;;;;8.68;3.95;;;;;;;;;;5049079;28;20051;-75
2023/12/27 03:35:26;;;;;;;14.48;3.92;;;;;;;;;;5049585;28;20074;-75
2023/12/27 03:37:52;;;;;;;7.72;3.88;;;;;;;;;;5040927;28;20126;-75
2023/12/27 03:40:21;;;;;;;7.75;4.00;;;;;;;;;;5051970;28;20135;-75
2023/12/27 03:42:47;;;;;;;9.18;3.70;;;;;;;;;;5049283;28;20061;-75
2023/12/27 03:45:13;;;;;;;12.80;5.20;;;;;;;;;;5044872;28;20498;-75
2023/12/27 03:47:39;;;;;;;11.23;3.97;;;;;;;;;;5071015;28;20044;-75
2023/12/27 03:50:05;;;;;;;9.93;3.97;;;;;;;;;;5061776;28;20041;-75
2023/12/27 03:52:31;;;;;;;9.15;4.45;;;;;;;;;;5046420;28;20041;-74
2023/12/27 03:54:57;;;;;;;11.20;4.65;;;;;;;;;;5052386;28;20502;-75
2023/12/27 03:57:23;;;;;;;7.03;4.20;;;;;;;;;;5062168;28;20045;-75
2023/12/27 03:59:49;;;;;;;11.88;4.25;;;;;;;;;;5049816;28;20048;-75
2023/12/27 04:02:18;;;;;;;16.98;5.35;;;;;;;;;;5046395;28;20056;-74
2023/12/27 04:04:46;;;;;;;10.98;4.45;;;;;;;;;;5045927;28;20067;-75
2023/12/27 04:07:12;;;;;;;10.40;4.53;;;;;;;;;;5039452;28;20056;-75
2023/12/27 04:09:42;;;;;;;11.02;4.60;;;;;;;;;;5064429;28;20139;-75
2023/12/27 04:12:08;;;;;;;13.98;5.28;;;;;;;;;;5063029;28;20037;-75
2023/12/27 04:14:34;;;;;;;10.50;4.95;;;;;;;;;;5042708;28;20049;-75
2023/12/27 04:17:01;;;;;;;9.50;4.45;;;;;;;;;;5048914;28;20109;-75
2023/12/27 04:19:27;;;;;;;10.85;4.70;;;;;;;;;;5048084;28;20048;-75
2023/12/27 04:21:53;;;;;;;10.05;4.38;;;;;;;;;;5049404;28;20044;-75
2023/12/27 04:24:19;;;;;;;11.38;5.28;;;;;;;;;;5045915;28;20395;-75
2023/12/27 04:26:44;;;;;;;13.43;4.72;;;;;;;;;;5049202;28;20056;-75
2023/12/27 04:29:11;;;;;;;13.27;4.75;;;;;;;;;;5046550;28;20059;-75
2023/12/27 04:31:37;;;;;;;11.10;4.10;;;;;;;;;;5048015;28;20037;-75
2023/12/27 04:34:03;;;;;;;14.73;6.03;;;;;;;;;;5052913;28;20090;-75
2023/12/27 04:36:29;;;;;;;13.88;4.80;;;;;;;;;;5072573;28;20072;-75
2023/12/27 04:38:55;;;;;;;12.20;5.22;;;;;;;;;;5054706;28;20083;-75
2023/12/27 04:41:24;;;;;;;12.07;4.47;;;;;;;;;;5045041;28;20048;-75
2023/12/27 04:43:50;;;;;;;14.23;5.43;;;;;;;;;;5056120;28;20083;-75
2023/12/27 04:46:16;;;;;;;13.52;4.45;;;;;;;;;;5053476;28;20091;-75
2023/12/27 04:48:43;;;;;;;14.10;5.20;;;;;;;;;;5042106;28;20041;-75
2023/12/27 04:51:09;;;;;;;13.60;4.60;;;;;;;;;;5056587;28;20124;-75
2023/12/27 04:53:35;;;;;;;7.68;4.70;;;;;;;;;;5045209;28;20120;-75
2023/12/27 04:56:01;;;;;;;13.25;4.78;;;;;;;;;;5050941;28;20131;-75
2023/12/27 04:58:26;;;;;;;13.50;5.10;;;;;;;;;;5074543;28;20076;-75
2023/12/27 05:00:52;;;;;;;10.93;4.75;;;;;;;;;;5053492;28;20058;-75
2023/12/27 05:03:18;;;;;;;12.52;5.50;;;;;;;;;;5048711;28;20044;-75
2023/12/27 05:05:44;;;;;;;8.80;4.43;;;;;;;;;;5049023;28;20484;-75
2023/12/27 05:08:10;;;;;;;12.70;5.10;;;;;;;;;;5048047;28;20095;-75
2023/12/27 05:10:36;;;;;;;9.55;4.43;;;;;;;;;;5046914;28;20053;-75
2023/12/27 05:13:05;;;;;;;10.55;5.00;;;;;;;;;;5070502;28;20163;-75
2023/12/27 05:15:31;;;;;;;11.70;5.97;;;;;;;;;;5069289;28;20536;-75
2023/12/27 05:17:58;;;;;;;15.57;5.72;;;;;;;;;;5067891;28;20518;-75
2023/12/27 05:20:24;;;;;;;11.90;5.65;;;;;;;;;;5051481;28;20052;-75
2023/12/27 05:22:50;;;;;;;13.30;6.15;;;;;;;;;;5042174;28;20598;-75
2023/12/27 05:25:16;;;;;;;13.52;5.63;;;;;;;;;;5048924;28;20054;-74
2023/12/27 05:27:42;;;;;;;14.05;5.85;;;;;;;;;;5048056;28;20057;-75
2023/12/27 05:30:09;;;;;;;10.48;5.25;;;;;;;;;;5052480;28;20058;-75
2023/12/27 05:32:36;;;;;;;14.05;5.80;;;;;;;;;;5067158;28;20514;-75
2023/12/27 05:35:02;;;;;;;16.52;5.25;;;;;;;;;;5071053;28;20729;-75
2023/12/27 05:37:28;;;;;;;13.90;5.20;;;;;;;;;;5046043;28;20490;-75
2023/12/27 05:39:54;;;;;;;16.30;5.53;;;;;;;;;;5047005;28;20408;-75
2023/12/27 05:42:24;;;;;;;16.33;5.30;;;;;;;;;;5041160;28;20461;-75
2023/12/27 05:44:50;;;;;;;10.93;5.07;;;;;;;;;;5050215;28;20063;-75
2023/12/27 05:47:18;;;;;;;16.40;5.80;;;;;;;;;;5052086;28;20045;-75
2023/12/27 05:49:44;;;;;;;12.43;4.95;;;;;;;;;;5049993;28;20109;-75
2023/12/27 05:52:11;;;;;;;14.32;5.55;;;;;;;;;;5065439;28;20037;-75
2023/12/27 05:54:37;;;;;;;14.68;5.72;;;;;;;;;;5074560;28;20441;-75
2023/12/27 05:57:03;;;;;;;10.75;5.32;;;;;;;;;;5054584;28;20389;-75
2023/12/27 05:59:29;;;;;;;9.48;5.53;;;;;;;;;;5064437;28;20101;-75
2023/12/27 06:01:55;;;;;;;14.73;5.57;;;;;;;;;;5067397;28;20083;-75
2023/12/27 06:04:22;;;;;;;16.55;6.70;;;;;;;;;;5044788;28;20072;-75
2023/12/27 06:06:54;;;;;;;15.25;5.43;;;;;;;;;;5044905;28;20527;-75
2023/12/27 06:09:20;;;;;;;14.13;5.65;;;;;;;;;;5042944;28;20048;-75
2023/12/27 06:11:46;;;;;;;12.80;6.18;;;;;;;;;;5046470;28;20044;-75
2023/12/27 06:14:13;;;;;;;14.93;6.05;;;;;;;;;;5048344;28;20454;-75
2023/12/27 06:16:39;;;;;;;15.40;6.78;;;;;;;;;;5046631;28;20102;-75
2023/12/27 06:19:05;;;;;;;16.05;6.78;;;;;;;;;;5046490;28;20052;-75
2023/12/27 06:21:31;;;;;;;16.00;6.75;;;;;;;;;;5047356;28;20080;-75
2023/12/27 06:23:57;;;;;;;15.98;7.85;;;;;;;;;;5046912;28;20043;-75
2023/12/27 06:26:23;;;;;;;13.90;6.75;;;;;;;;;;5048943;28;20148;-75
2023/12/27 06:28:49;;;;;;;12.35;6.72;;;;;;;;;;5043386;28;20106;-75
2023/12/27 06:31:16;;;;;;;17.05;6.50;;;;;;;;;;5059482;28;20626;-75
2023/12/27 06:33:42;;;;;;;13.00;7.47;;;;;;;;;;5046420;28;20053;-75
2023/12/27 06:36:08;;;;;;;13.35;6.00;;;;;;;;;;5051033;28;20551;-75
2023/12/27 06:38:34;;;;;;;14.98;6.20;;;;;;;;;;5053731;28;20094;-75
2023/12/27 06:41:03;;;;;;;13.55;6.55;;;;;;;;;;5043337;28;20114;-75
2023/12/27 06:43:29;;;;;;;19.08;6.63;;;;;;;;;;5040173;28;20040;-75
2023/12/27 06:45:55;;;;;;;17.05;7.25;;;;;;;;;;5061102;28;20052;-75
2023/12/27 06:48:24;;;;;;;17.27;6.20;;;;;;;;;;5047158;28;20373;-75
2023/12/27 06:50:50;;;;;;;16.15;6.85;;;;;;;;;;5052419;28;20055;-75
2023/12/27 06:53:16;;;;;;;15.80;6.55;;;;;;;;;;5053830;28;20052;-75
2023/12/27 06:55:42;;;;;;;12.27;5.70;;;;;;;;;;5051944;28;20493;-75
2023/12/27 06:58:08;;;;;;;18.65;6.85;;;;;;;;;;5042950;28;20105;-75
2023/12/27 07:00:38;;;;;;;16.23;6.20;;;;;;;;;;5049471;28;20032;-75
2023/12/27 07:03:05;;;;;;;16.63;6.18;;;;;;;;;;5045031;28;20404;-75
2023/12/27 07:05:31;;;;;;;17.05;6.57;;;;;;;;;;5047226;28;21498;-75
2023/12/27 07:07:57;;;;;;;11.85;6.40;;;;;;;;;;5045662;28;20059;-75
2023/12/27 07:10:23;;;;;;;16.60;6.63;;;;;;;;;;5045215;28;20047;-75
2023/12/27 07:12:49;;;;;;;16.65;6.40;;;;;;;;;;5049373;28;20316;-75
2023/12/27 07:15:15;;;;;;;14.02;6.47;;;;;;;;;;5043964;28;20053;-75
2023/12/27 07:17:41;;;;;;;15.13;6.40;;;;;;;;;;5048009;28;20119;-75
2023/12/27 07:20:08;;;;;;;18.23;7.05;;;;;;;;;;5047541;28;20487;-75
2023/12/27 07:22:34;;;;;;;19.02;6.97;;;;;;;;;;5060106;28;20044;-75
2023/12/27 07:25:00;;;;;;;18.35;6.70;;;;;;;;;;5043374;28;20063;-75
2023/12/27 07:27:29;;;;;;;22.20;6.90;;;;;;;;;;5044419;28;20091;-75
2023/12/27 07:29:55;;;;;;;13.57;5.93;;;;;;;;;;5039733;28;20408;-75
2023/12/27 07:32:21;;;;;;;12.95;5.80;;;;;;;;;;5037682;28;20049;-75
2023/12/27 07:34:47;;;;;;;16.25;6.10;;;;;;;;;;5043630;28;20452;-75
2023/12/27 07:37:13;;;;;;;18.70;6.00;;;;;;;;;;5043160;28;20045;-75
2023/12/27 07:39:41;;;;;;;14.13;5.10;;;;;;;;;;5045242;28;20508;-75
2023/12/27 07:42:07;;;;;;;12.50;5.40;;;;;;;;;;5049111;28;20052;-75
2023/12/27 07:44:33;;;;;;;13.93;5.65;;;;;;;;;;5037772;28;20045;-75
2023/12/27 07:46:59;;;;;;;15.77;6.00;;;;;;;;;;5044908;28;20098;-75
2023/12/27 07:49:25;;;;;;;13.57;5.80;;;;;;;;;;5040816;28;20041;-75
2023/12/27 07:51:51;;;;;;;16.05;6.00;;;;;;;;;;5042033;28;20045;-75
2023/12/27 07:54:17;;;;;;;14.85;5.60;;;;;;;;;;5042118;28;20049;-75
2023/12/27 07:56:43;;;;;;;15.35;5.88;;;;;;;;;;5042003;28;20075;-71
2023/12/27 07:59:09;;;;;;;12.45;5.35;;;;;;;;;;5047631;28;20099;-75
2023/12/27 08:01:35;;;;;;;11.15;5.55;;;;;;;;;;5039832;28;20041;-75
2023/12/27 08:04:01;;;;;;;15.18;5.55;;;;;;;;;;5043208;28;20044;-75
2023/12/27 08:06:27;;;;;;;11.52;5.25;;;;;;;;;;5043688;28;20692;-75
2023/12/27 08:08:55;;;;;;;21.45;5.72;;;;;;;;;;5046024;28;20099;-75
2023/12/27 08:11:22;;;;;;;14.48;5.53;;;;;;;;;;5044632;28;20551;-75
2023/12/27 08:13:48;;;;;;;13.60;5.82;;;;;;;;;;5047176;28;20045;-75
2023/12/27 08:16:14;;;;;;;9.77;5.70;;;;;;;;;;5048800;28;20041;-75
2023/12/27 08:18:40;;;;;;;14.25;5.20;;;;;;;;;;5047680;28;20047;-74
2023/12/27 08:21:06;;;;;;;12.45;5.60;;;;;;;;;;5040516;28;20055;-73
2023/12/27 08:23:32;;;;;;;21.50;6.35;;;;;;;;;;5046018;28;20045;-75
2023/12/27 08:25:58;;;;;;;15.40;6.07;;;;;;;;;;5047117;28;20108;-76
2023/12/27 08:28:24;;;;;;;14.27;5.78;;;;;;;;;;5052802;28;20037;-75
2023/12/27 08:30:50;;;;;;;16.13;5.70;;;;;;;;;;5042785;28;20048;-76
2023/12/27 08:33:16;;;;;;;14.93;6.22;;;;;;;;;;5048379;28;20154;-75
2023/12/27 08:35:42;;;;;;;16.15;6.13;;;;;;;;;;5052309;28;20079;-76
2023/12/27 08:38:08;;;;;;;14.70;5.45;;;;;;;;;;5052675;28;20527;-77
2023/12/27 08:40:35;;;;;;;14.30;5.78;;;;;;;;;;5048754;28;20049;-79
2023/12/27 08:43:02;;;;;;;14.38;6.30;;;;;;;;;;5037867;28;20041;-78
2023/12/27 08:45:28;;;;;;;13.00;6.00;;;;;;;;;;5048049;28;20084;-76
2023/12/27 08:47:54;;;;;;;14.13;6.05;;;;;;;;;;5050099;28;20041;-77
2023/12/27 08:50:20;;;;;;;18.80;5.93;;;;;;;;;;5047519;28;20045;-78
2023/12/27 08:52:46;;;;;;;13.80;6.38;;;;;;;;;;5047068;28;20091;-78
2023/12/27 08:55:14;;;;;;;15.77;6.55;;;;;;;;;;5046564;28;20049;-78
2023/12/27 08:57:40;;;;;;;17.80;6.40;;;;;;;;;;5046856;28;20045;-76
2023/12/27 09:00:10;;;;;;;15.40;6.10;;;;;;;;;;5043463;28;20091;-76
2023/12/27 09:02:36;;;;;;;21.77;6.72;;;;;;;;;;5048865;28;20075;-75
2023/12/27 09:05:03;;;;;;;14.55;7.40;;;;;;;;;;5052786;28;20076;-77
2023/12/27 09:07:30;;;;;;;13.88;6.32;;;;;;;;;;5043505;28;20489;-78
2023/12/27 09:09:56;;;;;;;15.48;6.30;;;;;;;;;;5045142;28;20052;-79
2023/12/27 09:12:22;;;;;;;19.75;6.88;;;;;;;;;;5044932;28;20053;-77
2023/12/27 09:14:48;;;;;;;17.75;7.05;;;;;;;;;;5052527;28;20374;-78
2023/12/27 09:17:15;;;;;;;13.57;6.20;;;;;;;;;;5048097;28;20064;-78
2023/12/27 09:19:42;;;;;;;14.80;6.30;;;;;;;;;;5045312;28;20056;-76
2023/12/27 09:22:10;;;;;;;19.52;8.52;;;;;;;;;;5049913;28;20045;-76
2023/12/27 09:24:41;;;;;;;16.42;6.85;;;;;;;;;;5053336;28;20081;-77
2023/12/27 09:27:17;;;;;;;12.00;7.03;;;;;;;;;;5065520;28;20060;-76
2023/12/27 09:29:43;;;;;;;15.05;8.25;;;;;;;;;;5063168;28;20033;-75
2023/12/27 09:32:09;;;;;;;16.35;8.20;;;;;;;;;;5067782;28;20047;-76
2023/12/27 09:34:35;;;;;;;16.45;7.40;;;;;;;;;;5073688;28;20053;-75
2023/12/27 09:37:03;;;;;;;16.10;7.97;;;;;;;;;;5048372;28;20520;-77
2023/12/27 09:39:29;;;;;;;15.05;8.65;;;;;;;;;;5055291;28;20555;-75
2023/12/27 09:41:55;;;;;;;18.98;8.57;;;;;;;;;;5074241;28;20503;-75
2023/12/27 09:44:21;;;;;;;19.55;8.38;;;;;;;;;;5048699;28;20044;-76
2023/12/27 09:46:47;;;;;;;21.42;8.82;;;;;;;;;;5067156;28;20263;-75
2023/12/27 09:49:16;;;;;;;15.43;8.45;;;;;;;;;;5063889;28;20583;-74
2023/12/27 09:51:43;;;;;;;18.80;8.85;;;;;;;;;;5043724;28;20048;-84
2023/12/27 09:54:09;;;;;;;23.45;9.57;;;;;;;;;;5036939;28;20101;-85
2023/12/27 09:56:37;;;;;;;17.63;8.93;;;;;;;;;;5059548;28;20078;-87
2023/12/27 09:59:06;;;;;;;15.10;8.88;;;;;;;;;;5041087;28;20507;-85
2023/12/27 10:01:34;;;;;;;22.30;9.77;;;;;;;;;;5060644;28;20130;-80
2023/12/27 10:04:22;;;;;;;20.15;9.25;;;;;;;;;;5063082;28;20055;-87
2023/12/27 10:06:49;;;;;;;16.13;8.90;;;;;;;;;;5008301;28;20559;-84
2023/12/27 10:09:15;;;;;;;16.88;9.02;;;;;;;;;;5040035;28;20138;-82
2023/12/27 10:11:42;;;;;;;25.00;10.75;;;;;;;;;;5044372;28;20048;-83
2023/12/27 10:14:12;;;;;;;21.80;10.25;;;;;;;;;;5061229;28;20047;-88
2023/12/27 10:16:38;;;;;;;23.45;10.75;;;;;;;;;;5043079;28;20048;-84
2023/12/27 10:19:05;;;;;;;21.42;10.10;;;;;;;;;;5064981;28;20412;-82
2023/12/27 10:21:43;;;;;;;20.13;10.00;;;;;;;;;;5060900;28;20053;-82
2023/12/27 10:24:13;;;;;;;21.00;9.70;;;;;;;;;;5061811;28;20046;-82
2023/12/27 10:26:39;;;;;;;19.42;10.32;;;;;;;;;;5041330;28;20056;-86
2023/12/27 10:29:07;;;;;;;20.20;9.95;;;;;;;;;;5045002;28;20056;-86
2023/12/27 10:31:34;;;;;;;20.90;12.23;;;;;;;;;;5044434;28;20124;-85
2023/12/27 10:34:03;;;;;;;20.50;11.52;;;;;;;;;;5042122;28;20132;-86
2023/12/27 10:36:30;;;;;;;21.45;10.52;;;;;;;;;;5062228;28;20451;-85
2023/12/27 10:38:59;;;;;;;19.40;10.43;;;;;;;;;;5064315;28;20087;-86
2023/12/27 10:41:26;;;;;;;18.42;10.18;;;;;;;;;;5044666;28;20048;-84
2023/12/27 10:43:53;;;;;;;20.30;11.05;;;;;;;;;;5043562;28;20113;-82
2023/12/27 10:46:19;;;;;;;22.13;10.63;;;;;;;;;;5041715;28;20068;-83
2023/12/27 10:48:49;;;;;;;21.42;10.43;;;;;;;;;;5044569;28;20715;-83
2023/12/27 10:51:15;;;;;;;22.75;11.80;;;;;;;;;;5042282;28;20071;-83
2023/12/27 10:53:43;;;;;;;21.63;10.85;;;;;;;;;;5063284;28;20037;-85
2023/12/27 10:56:11;;;;;;;26.95;11.80;;;;;;;;;;5059939;28;20056;-85
2023/12/27 10:58:42;;;;;;;21.92;10.90;;;;;;;;;;5043027;28;20120;-86
2023/12/27 11:01:08;;;;;;;21.42;12.05;;;;;;;;;;5043091;28;20406;-86
2023/12/27 11:03:35;;;;;;;23.02;12.07;;;;;;;;;;5059023;28;20079;-87
2023/12/27 11:06:02;;;;;;;19.08;11.55;;;;;;;;;;5061856;28;20052;-87
2023/12/27 11:08:31;;;;;;;23.17;12.55;;;;;;;;;;5044569;28;20102;-86
2023/12/27 11:11:00;;;;;;;25.17;12.45;;;;;;;;;;5040379;28;20098;-86
2023/12/27 11:13:27;;;;;;;21.17;13.23;;;;;;;;;;5045332;28;20063;-85
2023/12/27 11:15:56;;;;;;;19.50;12.00;;;;;;;;;;5052052;28;20057;-85
2023/12/27 11:18:23;;;;;;;20.98;13.15;;;;;;;;;;5060060;28;20052;-86
2023/12/27 11:20:50;;;;;;;22.73;14.13;;;;;;;;;;5044443;28;20080;-85
2023/12/27 11:23:17;;;;;;;20.65;13.50;;;;;;;;;;5064132;28;20064;-83
2023/12/27 11:25:43;;;;;;;23.48;13.13;;;;;;;;;;5048558;28;20041;-82
2023/12/27 11:28:09;;;;;;;27.15;13.70;;;;;;;;;;5037551;28;20443;-81
2023/12/27 11:30:36;;;;;;;24.25;14.80;;;;;;;;;;5062833;28;20040;-87
2023/12/27 11:33:03;;;;;;;21.23;12.63;;;;;;;;;;5054846;28;20350;-87
2023/12/27 11:35:30;;;;;;;25.67;14.65;;;;;;;;;;5047370;28;20051;-83
2023/12/27 11:38:25;;;;;;;22.33;14.48;;;;;;;;;;5048631;28;20519;-83
2023/12/27 11:40:52;;;;;;;23.13;14.63;;;;;;;;;;5017903;28;20061;-81
2023/12/27 11:43:22;;;;;;;20.60;13.43;;;;;;;;;;5033922;28;20076;-81
2023/12/27 11:45:58;;;;;;;20.50;14.50;;;;;;;;;;5053777;28;20037;-80
2023/12/27 11:48:25;;;;;;;21.33;15.43;;;;;;;;;;5047968;28;20036;-80
2023/12/27 11:50:51;;;;;;;24.05;14.68;;;;;;;;;;5047337;28;20048;-84
2023/12/27 11:53:18;;;;;;;23.55;15.27;;;;;;;;;;5069700;28;20625;-80
2023/12/27 11:55:46;;;;;;;22.52;15.93;;;;;;;;;;5062038;28;20076;-80
2023/12/27 11:58:14;;;;;;;23.45;16.65;;;;;;;;;;5043165;28;20131;-80
2023/12/27 12:00:40;;;;;;;25.30;17.17;;;;;;;;;;5045791;28;20496;-87
2023/12/27 12:03:13;;;;;;;25.55;17.50;;;;;;;;;;5063995;28;20048;-83
2023/12/27 12:05:39;;;;;;;27.40;17.98;;;;;;;;;;5037925;28;20167;-84
2023/12/27 12:08:18;;;;;;;24.75;17.58;;;;;;;;;;5042775;28;20485;-79
2023/12/27 12:10:44;;;;;;;24.00;17.17;;;;;;;;;;5045252;28;20052;-80
2023/12/27 12:13:10;;;;;;;22.95;17.95;;;;;;;;;;5041310;28;20056;-81
2023/12/27 12:15:36;;;;;;;26.08;18.48;;;;;;;;;;5046360;28;20133;-81
2023/12/27 12:18:03;;;;;;;29.00;18.25;;;;;;;;;;5043008;28;20809;-82
2023/12/27 12:20:30;;;;;;;24.13;16.92;;;;;;;;;;5061272;28;20044;-85
2023/12/27 12:22:57;;;;;;;21.23;16.67;;;;;;;;;;5052139;28;20053;-82
2023/12/27 12:25:24;;;;;;;25.38;17.85;;;;;;;;;;5049312;28;20400;-84
2023/12/27 12:27:50;;;;;;;22.13;17.00;;;;;;;;;;5049055;28;20507;-87
2023/12/27 12:30:16;;;;;;;23.50;18.10;;;;;;;;;;5040281;28;20057;-86
2023/12/27 12:32:42;;;;;;;23.42;17.60;;;;;;;;;;5049110;28;20071;-87
2023/12/27 12:35:09;;;;;;;26.02;18.52;;;;;;;;;;5066776;28;20087;-87
2023/12/27 12:37:36;;;;;;;25.38;18.42;;;;;;;;;;5060471;28;20053;-87
2023/12/27 12:40:04;;;;;;;23.05;17.67;;;;;;;;;;5048190;28;20056;-87
2023/12/27 12:42:33;;;;;;;25.42;18.73;;;;;;;;;;5042512;28;20125;-82
2023/12/27 12:44:59;;;;;;;26.70;19.35;;;;;;;;;;5060542;28;20037;-82
2023/12/27 12:47:25;;;;;;;25.35;18.52;;;;;;;;;;5066858;28;20048;-85
2023/12/27 12:49:51;;;;;;;26.17;18.80;;;;;;;;;;5041900;28;20041;-85
2023/12/27 12:52:17;;;;;;;25.63;18.27;;;;;;;;;;5041655;28;20052;-85
2023/12/27 12:54:47;;;;;;;25.80;18.40;;;;;;;;;;5056379;28;20044;-85
2023/12/27 12:57:14;;;;;;;25.70;18.58;;;;;;;;;;5066293;28;20590;-85
2023/12/27 12:59:42;;;;;;;28.88;19.23;;;;;;;;;;5065206;28;20041;-85
2023/12/27 13:02:08;;;;;;;28.73;20.67;;;;;;;;;;5043601;28;20102;-80
2023/12/27 13:04:34;;;;;;;26.60;18.73;;;;;;;;;;5047716;28;20430;-87
2023/12/27 13:07:03;;;;;;;26.70;19.73;;;;;;;;;;5051647;28;20060;-85
2023/12/27 13:09:29;;;;;;;27.75;19.02;;;;;;;;;;5055927;28;20041;-85
2023/12/27 13:11:55;;;;;;;23.63;17.58;;;;;;;;;;5053069;28;20044;-86
2023/12/27 13:14:21;;;;;;;26.38;19.17;;;;;;;;;;5054893;28;20445;-84
2023/12/27 13:16:48;;;;;;;27.85;19.33;;;;;;;;;;5050085;28;20056;-85
2023/12/27 13:19:16;;;;;;;26.77;18.80;;;;;;;;;;5050008;28;20115;-84
2023/12/27 13:21:43;;;;;;;30.67;18.55;;;;;;;;;;5047282;28;20055;-86
2023/12/27 13:24:09;;;;;;;24.35;19.10;;;;;;;;;;5051003;28;20439;-84
2023/12/27 13:26:35;;;;;;;28.15;19.45;;;;;;;;;;5045130;28;20059;-83
2023/12/27 13:29:01;;;;;;;24.95;17.73;;;;;;;;;;5045712;28;20105;-84
2023/12/27 13:31:27;;;;;;;29.70;19.40;;;;;;;;;;5048615;28;20056;-82
2023/12/27 13:33:53;;;;;;;26.85;20.27;;;;;;;;;;5046108;28;20120;-83
2023/12/27 13:36:19;;;;;;;28.00;19.90;;;;;;;;;;5061279;28;20123;-83
2023/12/27 13:38:45;;;;;;;26.17;18.98;;;;;;;;;;5061977;28;20484;-83
2023/12/27 13:41:11;;;;;;;31.70;20.02;;;;;;;;;;5044634;28;20048;-77
2023/12/27 13:43:39;;;;;;;31.58;19.77;;;;;;;;;;5046922;28;20118;-81
2023/12/27 13:46:05;;;;;;;27.95;18.63;;;;;;;;;;5065465;28;20048;-86
2023/12/27 13:48:32;;;;;;;30.17;19.58;;;;;;;;;;5048304;28;20094;-85
2023/12/27 13:51:00;;;;;;;32.65;20.05;;;;;;;;;;5046048;28;20036;-82
2023/12/27 13:53:26;;;;;;;30.65;20.23;;;;;;;;;;5043838;28;20167;-85
2023/12/27 13:55:52;;;;;;;29.27;19.48;;;;;;;;;;5047236;28;20157;-85
2023/12/27 13:58:18;;;;;;;26.80;19.15;;;;;;;;;;5044613;28;20139;-81
2023/12/27 14:00:44;;;;;;;26.17;18.90;;;;;;;;;;5064417;28;20045;-82
2023/12/27 14:03:11;;;;;;;26.13;17.80;;;;;;;;;;5053119;28;20072;-85
2023/12/27 14:05:38;;;;;;;28.60;17.08;;;;;;;;;;5047995;28;20115;-82
2023/12/27 14:08:05;;;;;;;25.38;17.85;;;;;;;;;;5049059;28;20041;-85
2023/12/27 14:10:31;;;;;;;27.77;18.27;;;;;;;;;;5046578;28;20056;-82
2023/12/27 14:12:58;;;;;;;22.77;16.40;;;;;;;;;;5047547;28;20065;-81
2023/12/27 14:15:24;;;;;;;25.90;17.77;;;;;;;;;;5043048;28;20514;-81
2023/12/27 14:17:50;;;;;;;25.35;16.55;;;;;;;;;;5043993;28;20043;-78
2023/12/27 14:20:16;;;;;;;25.92;15.40;;;;;;;;;;5042830;28;20416;-85
2023/12/27 14:22:43;;;;;;;20.60;15.77;;;;;;;;;;5046596;28;20082;-80
2023/12/27 14:25:09;;;;;;;22.90;15.05;;;;;;;;;;5045832;28;20054;-82